CheckWX is a tool to help pilots better visualize weather data.  It is not intended as a substitute for an official pre-flight weather briefing.

16:08:31 UTC

KOWB METAR
Owensboro-Daviess County Regional Airport
Owensboro, Kentucky, USA
Current

13 mins ago

KOWB 171556Z 22004KT 10SM CLR 30/24 A3000 RMK AO2 SLP155 T03000244
Observed
Aug-17 @ 15:56 UTC
Wind
  • 220° at 4 KTS
Visibility
10 SM
Flight Rules
VFR
Cloud Levels
  • Clear skies
Temperature
30°C / 86°F
Dewpoint
24°C / 75°F
Heat Index
35°C / 95°F
Humidity
70%
Altimeter
30" Hg
Pressure
1015.92 hPa
Previous

1 hour ago

KOWB 171456Z 23006KT 10SM SCT039 29/24 A3001 RMK AO2 SLP160 T02890239 53009
Observed
Aug-17 @ 14:56 UTC
Wind
  • 230° at 6 KTS
Visibility
10 SM
Flight Rules
VFR
Cloud Levels
  • Scattered at 3,900' AGL
Temperature
29°C / 84°F
Dewpoint
24°C / 75°F
Heat Index
33°C / 92°F
Humidity
74%
Altimeter
30.01" Hg
Pressure
1016.22 hPa
Previous

2 hours ago

KOWB 171356Z 24004KT 10SM CLR 27/24 A3001 RMK AO2 SLP158 T02720239
Observed
Aug-17 @ 13:56 UTC
Wind
  • 240° at 4 KTS
Visibility
10 SM
Flight Rules
VFR
Cloud Levels
  • Clear skies
Temperature
27°C / 81°F
Dewpoint
24°C / 75°F
Heat Index
31°C / 87°F
Humidity
84%
Altimeter
30.01" Hg
Pressure
1016.22 hPa